Springfield, Oregon
Current Conditions -  °F | °C
As of 5:19 AM on Monday 22 Dec 2014 (Local Time) from KEUG Reporting Station
Haze Haze  
Wind Chill: 51°   Ceiling: 1600
Heat Index: 51°   Visibility: 5mi
Dew Point: 50°   Wind: 0mph
Humidity: 96%   Direction: NA
Pressure: 30.31"   Gusts: NA
Location:  44.05°N, 123.01°W
Report Text: KEUG 221319Z AUTO 00000KT 5SM BR BKN016 BKN055 OVC075 11/10 A3031 RMK AO2 VIS 1/2 RNW 34 CIG 002 RNW 34 T01060100 $
Loading
Personal Weather Stations






























Interactive Weather Map New forecast layout! Learn more

10-Day Weather Forecast

Advertisements
Track Severe Weather on mobile